createdAt,value
2023-03-17T00:02:01.872Z,5.13
2023-03-17T00:04:06.206Z,5.24
2023-03-17T00:06:16.083Z,5.17
2023-03-17T00:08:23.038Z,5.17
2023-03-17T00:10:26.894Z,5.06
2023-03-17T00:12:30.042Z,5.08
2023-03-17T00:14:32.668Z,5.08
2023-03-17T00:16:38.967Z,5.02
2023-03-17T00:18:41.610Z,5.06
2023-03-17T00:20:47.665Z,5.09
2023-03-17T00:22:51.065Z,5.06
2023-03-17T00:24:53.740Z,5.03
2023-03-17T00:26:56.341Z,4.99
2023-03-17T00:28:58.948Z,5.05
2023-03-17T00:31:07.661Z,4.99
2023-03-17T00:33:12.414Z,5.16
2023-03-17T00:35:21.770Z,5.20
2023-03-17T00:37:25.790Z,5.10
2023-03-17T00:39:28.429Z,5.28
2023-03-17T00:41:31.073Z,5.13
2023-03-17T00:43:33.670Z,5.11
2023-03-17T00:45:36.876Z,5.06
2023-03-17T00:47:40.239Z,5.09
2023-03-17T00:49:42.906Z,5.08
2023-03-17T00:51:46.329Z,5.07
2023-03-17T00:53:50.369Z,5.05
2023-03-17T00:55:53.068Z,5.10
2023-03-17T00:57:55.620Z,5.03
2023-03-17T00:59:58.277Z,5.03
2023-03-17T01:02:01.000Z,5.08
2023-03-17T01:04:04.213Z,5.03
2023-03-17T01:06:09.416Z,4.97
2023-03-17T01:08:12.154Z,4.97
2023-03-17T01:10:19.304Z,4.94
2023-03-17T01:12:21.990Z,4.88
2023-03-17T01:14:25.731Z,4.87
2023-03-17T01:16:28.972Z,4.84
2023-03-17T01:18:31.711Z,4.89
2023-03-17T01:20:35.527Z,4.93
2023-03-17T01:22:38.246Z,4.91
2023-03-17T01:24:41.130Z,4.81
2023-03-17T01:26:45.194Z,4.83
2023-03-17T01:28:47.791Z,4.83
2023-03-17T01:30:51.031Z,4.82
2023-03-17T01:32:54.099Z,4.76
2023-03-17T01:34:56.926Z,4.81
2023-03-17T01:37:00.032Z,4.79
2023-03-17T01:39:03.432Z,4.77
2023-03-17T01:41:06.377Z,4.77
2023-03-17T01:43:20.794Z,4.75
2023-03-17T01:46:01.020Z,4.78
2023-03-17T01:48:03.708Z,4.74
2023-03-17T01:50:09.842Z,4.71
2023-03-17T01:52:16.463Z,4.71
2023-03-17T01:54:24.243Z,4.76
2023-03-17T01:56:27.046Z,4.77
2023-03-17T01:58:33.397Z,4.83
2023-03-17T02:00:36.347Z,4.87
2023-03-17T02:02:41.818Z,4.98
2023-03-17T02:04:44.477Z,4.94
2023-03-17T02:06:57.367Z,4.92
2023-03-17T02:09:01.715Z,4.82
2023-03-17T02:11:05.346Z,4.80
2023-03-17T02:13:11.582Z,4.80
2023-03-17T02:15:15.682Z,4.80
2023-03-17T02:17:19.029Z,4.72
2023-03-17T02:19:21.911Z,4.69
2023-03-17T02:21:45.174Z,4.73
2023-03-17T02:23:47.801Z,4.68
2023-03-17T02:25:52.774Z,4.69
2023-03-17T02:28:00.224Z,4.77
2023-03-17T02:30:03.005Z,4.75
2023-03-17T02:32:06.744Z,4.82
2023-03-17T02:34:09.359Z,4.69
2023-03-17T02:36:11.979Z,4.65
2023-03-17T02:38:15.923Z,4.63
2023-03-17T02:40:18.984Z,4.65
2023-03-17T02:42:22.038Z,4.68
2023-03-17T02:44:24.845Z,4.65
2023-03-17T02:46:27.681Z,4.60
2023-03-17T02:48:30.615Z,4.64
2023-03-17T02:50:33.555Z,4.74
2023-03-17T02:52:36.525Z,4.74
2023-03-17T02:54:40.676Z,4.77
2023-03-17T02:56:43.351Z,4.65
2023-03-17T02:58:46.362Z,4.54
2023-03-17T03:00:49.673Z,4.72
2023-03-17T03:02:52.765Z,4.63
2023-03-17T03:04:56.410Z,4.59
2023-03-17T03:06:59.494Z,4.67
2023-03-17T03:09:02.058Z,4.70
2023-03-17T03:11:06.256Z,4.60
2023-03-17T03:13:07.940Z,4.63
2023-03-17T03:15:11.535Z,4.68
2023-03-17T03:17:14.207Z,4.78
2023-03-17T03:19:17.441Z,4.80
2023-03-17T03:21:20.115Z,4.82
2023-03-17T03:23:23.179Z,4.86
2023-03-17T03:25:25.826Z,4.71
2023-03-17T03:27:29.832Z,4.68
2023-03-17T03:29:32.426Z,4.65
2023-03-17T03:31:35.062Z,4.78
2023-03-17T03:33:37.666Z,4.69
2023-03-17T03:35:40.913Z,4.75
2023-03-17T03:37:43.525Z,4.60
2023-03-17T03:39:46.117Z,4.50
2023-03-17T03:41:48.771Z,4.64
2023-03-17T03:43:53.117Z,4.67
2023-03-17T03:45:55.779Z,4.64
2023-03-17T03:47:58.386Z,4.40
2023-03-17T03:50:01.042Z,4.39
2023-03-17T03:52:03.664Z,4.40
2023-03-17T03:54:06.325Z,4.38
2023-03-17T03:56:09.234Z,4.38
2023-03-17T03:58:11.801Z,4.32
2023-03-17T04:00:17.748Z,4.39
2023-03-17T04:02:20.472Z,4.34
2023-03-17T04:04:23.478Z,4.25
2023-03-17T04:06:26.203Z,4.25
2023-03-17T04:08:28.815Z,4.30
2023-03-17T04:10:31.848Z,4.27
2023-03-17T04:12:34.654Z,4.40
2023-03-17T04:14:37.665Z,4.41
2023-03-17T04:16:43.616Z,4.41
2023-03-17T04:18:46.334Z,4.25
2023-03-17T04:20:49.086Z,4.17
2023-03-17T04:22:51.771Z,4.13
2023-03-17T04:24:54.405Z,4.14
2023-03-17T04:26:57.499Z,4.17
2023-03-17T04:29:00.157Z,4.14
2023-03-17T04:31:02.750Z,4.16
2023-03-17T04:33:07.136Z,4.10
2023-03-17T04:35:13.873Z,4.12
2023-03-17T04:37:16.663Z,4.12
2023-03-17T04:39:19.260Z,4.08
2023-03-17T04:41:22.222Z,4.04
2023-03-17T04:43:24.911Z,4.04
2023-03-17T04:45:27.544Z,3.99
2023-03-17T04:47:30.194Z,4.00
2023-03-17T04:49:34.403Z,4.00
2023-03-17T04:51:37.624Z,3.94
2023-03-17T04:53:40.376Z,3.92
2023-03-17T04:55:42.985Z,3.91
2023-03-17T04:57:45.889Z,3.95
2023-03-17T04:59:48.534Z,3.94
2023-03-17T05:01:51.285Z,3.95
2023-03-17T05:03:56.131Z,3.92
2023-03-17T05:06:00.473Z,3.90
2023-03-17T05:08:03.295Z,3.89
2023-03-17T05:10:06.654Z,3.80
2023-03-17T05:12:10.424Z,3.78
2023-03-17T05:14:13.313Z,3.75
2023-03-17T05:16:16.335Z,3.73
2023-03-17T05:18:19.807Z,3.68
2023-03-17T05:20:22.535Z,3.66
2023-03-17T05:22:27.153Z,3.72
2023-03-17T05:24:29.712Z,3.66
2023-03-17T05:26:32.281Z,3.69
2023-03-17T05:28:35.121Z,3.70
2023-03-17T05:30:37.830Z,3.69
2023-03-17T05:32:40.539Z,3.70
2023-03-17T05:34:43.194Z,3.75
2023-03-17T05:36:46.359Z,3.65
2023-03-17T05:38:50.561Z,3.60
2023-03-17T05:40:53.548Z,3.53
2023-03-17T05:42:56.784Z,3.54
2023-03-17T05:44:59.435Z,3.63
2023-03-17T05:47:02.111Z,3.66
2023-03-17T05:49:04.710Z,3.75
2023-03-17T05:51:07.417Z,3.82
2023-03-17T05:53:10.569Z,3.88
2023-03-17T05:55:14.606Z,3.91
2023-03-17T05:57:17.253Z,3.98
2023-03-17T05:59:20.000Z,4.01
2023-03-17T06:01:22.565Z,4.13
2023-03-17T06:03:25.410Z,4.15
2023-03-17T06:05:28.167Z,4.27
2023-03-17T06:07:41.364Z,4.24
2023-03-17T06:09:53.054Z,4.32
2023-03-17T06:11:57.653Z,4.34
2023-03-17T06:14:00.312Z,4.45
2023-03-17T06:16:03.089Z,4.54
2023-03-17T06:18:06.378Z,4.59
2023-03-17T06:20:10.310Z,4.73
2023-03-17T06:22:13.277Z,4.81
2023-03-17T06:24:16.107Z,5.01
2023-03-17T06:26:18.766Z,5.08
2023-03-17T06:28:23.100Z,5.21
2023-03-17T06:30:25.716Z,5.22
2023-03-17T06:32:28.421Z,5.23
2023-03-17T06:34:31.409Z,5.33
2023-03-17T06:36:35.216Z,5.33
2023-03-17T06:38:39.235Z,5.46
2023-03-17T06:40:41.838Z,5.37
2023-03-17T06:42:44.521Z,5.42
2023-03-17T06:44:48.532Z,5.58
2023-03-17T06:46:51.356Z,5.79
2023-03-17T06:48:54.113Z,5.75
2023-03-17T06:50:57.152Z,5.88
2023-03-17T06:52:59.709Z,6.03
2023-03-17T06:55:02.308Z,6.21
2023-03-17T06:57:05.057Z,6.52
2023-03-17T06:59:07.750Z,6.65
2023-03-17T07:01:12.062Z,6.78
2023-03-17T07:03:14.701Z,6.93
2023-03-17T07:05:17.899Z,7.05
2023-03-17T07:07:20.819Z,7.22
2023-03-17T07:09:23.484Z,7.39
2023-03-17T07:11:26.235Z,7.29
2023-03-17T07:13:28.898Z,7.40
2023-03-17T07:15:34.888Z,7.52
2023-03-17T07:17:39.348Z,7.68
2023-03-17T07:19:42.318Z,7.85
2023-03-17T07:21:46.905Z,8.23
2023-03-17T07:23:49.688Z,8.34
2023-03-17T07:25:52.540Z,8.53
2023-03-17T07:27:55.129Z,8.26
2023-03-17T07:29:57.790Z,8.15
2023-03-17T07:32:00.479Z,8.04
2023-03-17T07:34:04.661Z,8.48
2023-03-17T07:36:09.007Z,8.62
2023-03-17T07:38:12.170Z,8.55
2023-03-17T07:40:15.137Z,8.90
2023-03-17T07:42:18.420Z,8.99
2023-03-17T07:44:21.106Z,9.00
2023-03-17T07:46:24.004Z,9.02
2023-03-17T07:48:26.780Z,9.26
2023-03-17T07:50:30.915Z,9.38
2023-03-17T07:52:34.249Z,9.28
2023-03-17T07:54:37.569Z,9.63
2023-03-17T07:56:41.100Z,9.91
2023-03-17T07:58:43.783Z,10.05
2023-03-17T08:00:46.492Z,10.52
2023-03-17T08:03:03.225Z,10.14
2023-03-17T08:05:12.051Z,9.93
2023-03-17T08:07:16.047Z,10.15
2023-03-17T08:09:18.693Z,10.87
2023-03-17T08:11:21.973Z,10.91
2023-03-17T08:13:24.615Z,11.04
2023-03-17T08:15:27.414Z,10.78
2023-03-17T08:17:30.060Z,10.92
2023-03-17T08:19:32.750Z,11.19
2023-03-17T08:21:35.369Z,12.51
2023-03-17T08:23:39.471Z,12.35
2023-03-17T08:25:42.591Z,12.29
2023-03-17T08:27:45.227Z,11.67
2023-03-17T08:29:48.560Z,11.95
2023-03-17T08:31:51.355Z,11.54
2023-03-17T08:33:56.969Z,11.42
2023-03-17T08:36:00.245Z,11.02
2023-03-17T08:38:02.990Z,11.43
2023-03-17T08:40:10.011Z,11.84
2023-03-17T08:42:12.895Z,12.04
2023-03-17T08:44:16.577Z,12.41
2023-03-17T08:46:21.846Z,12.37
2023-03-17T08:48:24.906Z,12.78
2023-03-17T08:50:27.785Z,12.74
2023-03-17T08:52:30.560Z,13.77
2023-03-17T08:54:35.749Z,14.16
2023-03-17T08:56:41.929Z,12.33
2023-03-17T08:58:44.771Z,12.81
2023-03-17T09:00:48.922Z,12.67
2023-03-17T09:02:51.699Z,13.05
2023-03-17T09:04:54.459Z,12.87
2023-03-17T09:07:04.791Z,13.29
2023-03-17T09:09:07.642Z,13.19
2023-03-17T09:11:10.654Z,13.73
2023-03-17T09:13:14.965Z,15.00
2023-03-17T09:15:17.643Z,14.95
2023-03-17T09:17:20.391Z,15.43
2023-03-17T09:19:23.754Z,15.75
2023-03-17T09:21:27.303Z,16.86
2023-03-17T09:23:30.200Z,16.33
2023-03-17T09:25:32.856Z,16.00
2023-03-17T09:27:36.308Z,15.68
2023-03-17T09:29:40.526Z,15.62
2023-03-17T09:31:43.787Z,14.98
2023-03-17T09:33:47.345Z,15.60
2023-03-17T09:35:52.631Z,15.26
2023-03-17T09:37:55.585Z,14.41
2023-03-17T09:39:58.921Z,13.72
2023-03-17T09:42:21.392Z,13.74
2023-03-17T09:44:38.586Z,13.95
2023-03-17T09:46:54.616Z,13.75
2023-03-17T09:49:02.387Z,13.91
2023-03-17T09:51:10.155Z,13.94
2023-03-17T09:53:18.910Z,14.45
2023-03-17T09:55:28.380Z,15.08
2023-03-17T09:57:34.201Z,16.09
2023-03-17T09:59:40.505Z,16.56
2023-03-17T10:01:44.649Z,17.45
2023-03-17T10:03:47.741Z,17.91
2023-03-17T10:05:50.499Z,17.69
2023-03-17T10:08:04.295Z,20.21
2023-03-17T10:10:15.481Z,21.06
2023-03-17T10:12:28.887Z,19.95
2023-03-17T10:14:42.183Z,18.53
2023-03-17T10:16:53.956Z,16.44
2023-03-17T10:19:01.724Z,16.82
2023-03-17T10:21:07.610Z,18.31
2023-03-17T10:23:15.002Z,17.34
2023-03-17T10:25:20.298Z,16.80
2023-03-17T10:27:23.059Z,16.50
2023-03-17T10:29:26.116Z,15.86
2023-03-17T10:31:32.592Z,16.05
2023-03-17T10:33:36.634Z,17.22
2023-03-17T10:35:40.556Z,16.12
2023-03-17T10:37:44.171Z,17.95
2023-03-17T10:39:49.152Z,18.45
2023-03-17T10:41:58.132Z,17.45
2023-03-17T10:44:00.853Z,18.46
2023-03-17T10:46:05.778Z,18.59
2023-03-17T10:48:10.590Z,18.62
2023-03-17T10:50:24.557Z,17.35
2023-03-17T10:52:30.127Z,17.51
2023-03-17T10:54:36.686Z,18.04
2023-03-17T10:56:42.419Z,18.17
2023-03-17T10:58:49.153Z,17.97
2023-03-17T11:00:57.207Z,18.73
2023-03-17T11:03:00.952Z,17.81
2023-03-17T11:05:06.655Z,17.13
2023-03-17T11:07:17.727Z,17.54
2023-03-17T11:09:21.548Z,16.76
2023-03-17T11:11:27.082Z,16.96
2023-03-17T11:13:31.244Z,16.79
2023-03-17T11:15:36.170Z,16.80
2023-03-17T11:17:43.578Z,16.35
2023-03-17T11:19:55.681Z,16.61
2023-03-17T11:22:06.248Z,16.30
2023-03-17T11:24:15.077Z,16.52
2023-03-17T11:26:33.015Z,16.43
2023-03-17T11:28:41.011Z,16.25
2023-03-17T11:30:52.242Z,16.70
2023-03-17T11:32:58.702Z,16.73
2023-03-17T11:35:08.782Z,16.61
2023-03-17T11:37:22.684Z,17.26
2023-03-17T11:39:29.130Z,16.94
2023-03-17T11:42:07.252Z,16.77
2023-03-17T11:44:41.677Z,16.96
2023-03-17T11:46:52.214Z,17.46
2023-03-17T11:49:02.808Z,17.39
2023-03-17T11:51:20.130Z,17.27
2023-03-17T11:53:44.799Z,17.78
2023-03-17T11:55:54.485Z,17.92
2023-03-17T11:58:01.002Z,17.56
2023-03-17T12:00:06.066Z,17.72
2023-03-17T12:02:21.593Z,17.33
2023-03-17T12:04:34.227Z,17.21
2023-03-17T12:06:43.541Z,18.04
2023-03-17T12:08:52.554Z,18.20
2023-03-17T12:11:01.020Z,18.31
2023-03-17T12:13:09.146Z,17.87
2023-03-17T12:15:18.735Z,17.87
2023-03-17T12:17:26.894Z,17.40
2023-03-17T12:19:37.911Z,17.77
2023-03-17T12:21:45.895Z,18.49
2023-03-17T12:23:50.019Z,18.74
2023-03-17T12:26:00.277Z,18.61
2023-03-17T12:28:08.502Z,19.05
2023-03-17T12:30:25.072Z,18.60
2023-03-17T12:32:36.739Z,18.92
2023-03-17T12:34:46.177Z,18.94
2023-03-17T12:36:49.800Z,18.84
2023-03-17T12:38:57.049Z,18.28
2023-03-17T12:41:34.159Z,18.68
2023-03-17T12:43:42.592Z,18.90
2023-03-17T12:45:59.703Z,18.80
2023-03-17T12:48:32.564Z,19.25
2023-03-17T12:51:08.430Z,18.97
2023-03-17T12:53:26.712Z,18.87
2023-03-17T12:55:33.679Z,18.99
2023-03-17T12:57:41.858Z,19.23
2023-03-17T12:59:46.893Z,19.25
2023-03-17T13:01:58.151Z,18.50
2023-03-17T13:04:14.467Z,19.12
2023-03-17T13:06:22.449Z,19.38
2023-03-17T13:08:30.814Z,18.74
2023-03-17T13:10:42.901Z,19.02
2023-03-17T13:13:25.359Z,18.58
2023-03-17T13:15:49.209Z,19.11
2023-03-17T13:17:52.582Z,18.28
2023-03-17T13:19:58.266Z,18.90
2023-03-17T13:22:33.623Z,19.19
2023-03-17T13:24:50.975Z,19.33
2023-03-17T13:27:00.841Z,19.13
2023-03-17T13:29:25.158Z,19.20
2023-03-17T13:31:36.545Z,19.08
2023-03-17T13:33:45.632Z,19.20
2023-03-17T13:36:06.563Z,19.36
2023-03-17T13:38:38.307Z,19.27
2023-03-17T13:40:59.050Z,19.16
2023-03-17T13:43:15.371Z,19.29
2023-03-17T13:45:27.176Z,19.26
2023-03-17T13:47:35.473Z,19.36
2023-03-17T13:49:38.372Z,19.27
2023-03-17T13:51:52.792Z,19.37
2023-03-17T13:54:10.650Z,19.05
2023-03-17T13:56:27.854Z,19.51
2023-03-17T13:58:35.169Z,19.46
2023-03-17T14:00:41.425Z,19.17
2023-03-17T14:02:45.226Z,19.63
2023-03-17T14:04:54.474Z,19.51
2023-03-17T14:07:00.851Z,19.87
2023-03-17T14:09:10.393Z,19.64
2023-03-17T14:11:22.541Z,19.43
2023-03-17T14:13:28.442Z,19.03
2023-03-17T14:15:40.706Z,19.51
2023-03-17T14:17:47.537Z,19.31
2023-03-17T14:20:08.147Z,19.35
2023-03-17T14:22:22.541Z,19.11
2023-03-17T14:24:29.620Z,19.61
2023-03-17T14:26:33.913Z,19.47
2023-03-17T14:28:36.903Z,19.51
2023-03-17T14:30:39.775Z,19.57
2023-03-17T14:32:49.049Z,19.53
2023-03-17T14:34:56.117Z,19.25
2023-03-17T14:37:02.163Z,19.51
2023-03-17T14:39:05.115Z,19.29
2023-03-17T14:41:17.306Z,19.26
2023-03-17T14:43:19.958Z,19.53
2023-03-17T14:45:29.806Z,18.91
2023-03-17T14:47:38.808Z,18.97
2023-03-17T14:49:43.045Z,19.46
2023-03-17T14:51:46.343Z,19.41
2023-03-17T14:53:49.350Z,19.40
2023-03-17T14:55:53.765Z,19.25
2023-03-17T14:57:56.512Z,18.94
2023-03-17T15:00:00.751Z,19.09
2023-03-17T15:02:16.728Z,19.12
2023-03-17T15:04:22.809Z,19.26
2023-03-17T15:06:29.597Z,19.10
2023-03-17T15:08:46.284Z,18.93
2023-03-17T15:10:49.088Z,18.81
2023-03-17T15:13:01.741Z,18.99
2023-03-17T15:15:07.554Z,19.14
2023-03-17T15:17:19.306Z,19.16
2023-03-17T15:19:27.645Z,19.31
2023-03-17T15:21:39.046Z,18.96
2023-03-17T15:23:41.762Z,18.90
2023-03-17T15:25:47.225Z,18.77
2023-03-17T15:27:50.175Z,18.88
2023-03-17T15:29:52.931Z,18.68
2023-03-17T15:32:02.398Z,18.77
2023-03-17T15:34:05.364Z,18.68
2023-03-17T15:36:14.462Z,18.61
2023-03-17T15:38:21.514Z,18.45
2023-03-17T15:40:24.302Z,18.48
2023-03-17T15:42:30.418Z,18.52
2023-03-17T15:44:33.078Z,18.75
2023-03-17T15:46:36.788Z,18.53
2023-03-17T15:48:39.539Z,18.46
2023-03-17T15:50:42.414Z,18.42
2023-03-17T15:52:46.175Z,18.41
2023-03-17T15:54:50.403Z,18.18
2023-03-17T15:56:53.049Z,18.26
2023-03-17T15:58:55.678Z,18.22
2023-03-17T16:00:59.664Z,18.22
2023-03-17T16:03:09.598Z,18.14
2023-03-17T16:05:17.640Z,18.15
2023-03-17T16:07:21.173Z,18.15
2023-03-17T16:09:23.846Z,18.32
2023-03-17T16:11:31.532Z,18.29
2023-03-17T16:13:34.363Z,18.27
2023-03-17T16:15:39.450Z,18.30
2023-03-17T16:17:42.800Z,18.23
2023-03-17T16:19:45.846Z,17.92
2023-03-17T16:21:49.360Z,17.94
2023-03-17T16:23:52.085Z,17.83
2023-03-17T16:26:04.586Z,17.82
2023-03-17T16:28:18.192Z,17.68
2023-03-17T16:30:22.930Z,17.62
2023-03-17T16:32:25.695Z,17.56
2023-03-17T16:34:28.388Z,17.59
2023-03-17T16:36:30.995Z,17.60
2023-03-17T16:38:35.086Z,17.55
2023-03-17T16:40:39.358Z,17.55
2023-03-17T16:42:42.812Z,17.44
2023-03-17T16:44:46.980Z,17.35
2023-03-17T16:46:49.763Z,17.19
2023-03-17T16:48:52.544Z,17.04
2023-03-17T16:50:55.667Z,16.93
2023-03-17T16:52:59.396Z,16.87
2023-03-17T16:55:02.078Z,16.73
2023-03-17T16:57:07.588Z,16.64
2023-03-17T16:59:20.362Z,16.54
2023-03-17T17:01:28.138Z,16.69
2023-03-17T17:03:31.400Z,16.71
2023-03-17T17:05:34.344Z,16.63
2023-03-17T17:07:36.961Z,16.50
2023-03-17T17:09:39.619Z,16.40
2023-03-17T17:11:42.292Z,16.27
2023-03-17T17:13:46.822Z,16.17
2023-03-17T17:15:50.181Z,16.14
2023-03-17T17:17:57.693Z,16.05
2023-03-17T17:20:01.917Z,16.04
2023-03-17T17:22:04.734Z,16.02
2023-03-17T17:24:07.650Z,16.12
2023-03-17T17:26:10.757Z,16.20
2023-03-17T17:28:15.273Z,16.07
2023-03-17T17:30:20.204Z,15.91
2023-03-17T17:32:23.737Z,15.85
2023-03-17T17:34:27.724Z,15.72
2023-03-17T17:36:31.085Z,16.01
2023-03-17T17:38:33.751Z,16.00
2023-03-17T17:40:37.343Z,15.65
2023-03-17T17:42:40.843Z,15.66
2023-03-17T17:44:43.768Z,15.52
2023-03-17T17:46:46.676Z,15.44
2023-03-17T17:48:50.058Z,15.56
2023-03-17T17:50:55.381Z,15.65
2023-03-17T17:53:04.825Z,15.81
2023-03-17T17:55:08.019Z,15.62
2023-03-17T17:57:11.904Z,15.60
2023-03-17T17:59:14.757Z,15.48
2023-03-17T18:01:21.792Z,15.45
2023-03-17T18:03:25.274Z,15.49
2023-03-17T18:05:28.076Z,15.50
2023-03-17T18:07:32.292Z,15.53
2023-03-17T18:09:34.903Z,15.38
2023-03-17T18:11:38.543Z,15.55
2023-03-17T18:13:41.224Z,15.32
2023-03-17T18:15:44.113Z,15.33
2023-03-17T18:17:47.010Z,15.25
2023-03-17T18:19:50.013Z,15.21
2023-03-17T18:21:52.875Z,15.20
2023-03-17T18:23:57.103Z,15.27
2023-03-17T18:26:01.072Z,15.37
2023-03-17T18:28:04.003Z,15.23
2023-03-17T18:30:10.434Z,15.23
2023-03-17T18:32:14.349Z,15.26
2023-03-17T18:34:20.772Z,15.06
2023-03-17T18:36:23.854Z,15.07
2023-03-17T18:38:28.590Z,14.96
2023-03-17T18:40:32.558Z,14.96
2023-03-17T18:42:35.274Z,14.99
2023-03-17T18:44:39.939Z,14.98
2023-03-17T18:46:42.721Z,15.05
2023-03-17T18:48:45.410Z,15.31
2023-03-17T18:50:48.097Z,15.18
2023-03-17T18:52:51.343Z,15.13
2023-03-17T18:54:53.967Z,15.16
2023-03-17T18:56:58.053Z,15.03
2023-03-17T18:59:01.070Z,14.99
2023-03-17T19:01:03.855Z,15.03
2023-03-17T19:03:06.981Z,15.03
2023-03-17T19:05:11.479Z,15.14
2023-03-17T19:07:14.454Z,14.98
2023-03-17T19:09:17.050Z,14.99
2023-03-17T19:11:21.576Z,14.90
2023-03-17T19:13:26.447Z,14.92
2023-03-17T19:15:29.144Z,15.02
2023-03-17T19:17:32.153Z,15.07
2023-03-17T19:19:35.309Z,15.12
2023-03-17T19:21:38.141Z,15.12
2023-03-17T19:23:41.587Z,15.07
2023-03-17T19:25:44.289Z,15.05
2023-03-17T19:27:46.965Z,14.99
2023-03-17T19:29:50.987Z,14.93
2023-03-17T19:31:53.629Z,14.85
2023-03-17T19:33:56.460Z,14.76
2023-03-17T19:36:00.296Z,14.84
2023-03-17T19:38:03.988Z,14.78
2023-03-17T19:40:09.531Z,14.83
2023-03-17T19:42:12.541Z,14.74
2023-03-17T19:44:15.494Z,14.71
2023-03-17T19:46:19.569Z,14.67
2023-03-17T19:48:22.642Z,14.72
2023-03-17T19:50:26.170Z,14.67
2023-03-17T19:52:28.998Z,14.60
2023-03-17T19:54:31.628Z,14.69
2023-03-17T19:56:34.329Z,14.61
2023-03-17T19:58:37.329Z,14.58
2023-03-17T20:00:42.123Z,14.45
2023-03-17T20:02:46.368Z,14.37
2023-03-17T20:04:50.033Z,14.27
2023-03-17T20:06:55.547Z,14.31
2023-03-17T20:08:58.796Z,14.39
2023-03-17T20:11:01.688Z,14.32
2023-03-17T20:13:04.375Z,14.37
2023-03-17T20:15:08.736Z,14.26
2023-03-17T20:17:12.030Z,14.14
2023-03-17T20:19:16.462Z,14.16
2023-03-17T20:21:19.138Z,14.13
2023-03-17T20:23:22.610Z,14.03
2023-03-17T20:25:25.556Z,13.99
2023-03-17T20:27:28.826Z,14.01
2023-03-17T20:29:31.581Z,14.04
2023-03-17T20:31:34.456Z,14.02
2023-03-17T20:33:37.140Z,13.96
2023-03-17T20:35:43.095Z,13.95
2023-03-17T20:37:46.053Z,13.90
2023-03-17T20:39:48.760Z,13.91
2023-03-17T20:41:52.338Z,13.91
2023-03-17T20:43:54.968Z,13.91
2023-03-17T20:45:57.614Z,13.93
2023-03-17T20:48:00.849Z,13.76
2023-03-17T20:50:06.165Z,13.90
2023-03-17T20:52:13.091Z,13.80
2023-03-17T20:54:15.802Z,13.78
2023-03-17T20:56:20.760Z,13.76
2023-03-17T20:58:23.564Z,13.64
2023-03-17T21:00:26.733Z,13.70
2023-03-17T21:02:29.463Z,13.55
2023-03-17T21:04:32.229Z,13.60
2023-03-17T21:06:35.164Z,13.45
2023-03-17T21:08:39.627Z,13.52
2023-03-17T21:10:42.365Z,13.46
2023-03-17T21:12:45.112Z,13.33
2023-03-17T21:14:48.993Z,13.48
2023-03-17T21:16:51.775Z,13.59
2023-03-17T21:18:54.925Z,13.44
2023-03-17T21:20:57.796Z,13.40
2023-03-17T21:23:00.411Z,13.35
2023-03-17T21:25:04.641Z,13.43
2023-03-17T21:27:11.076Z,13.42
2023-03-17T21:29:13.720Z,13.38
2023-03-17T21:31:17.312Z,13.24
2023-03-17T21:33:21.409Z,13.19
2023-03-17T21:35:25.043Z,13.21
2023-03-17T21:37:27.914Z,13.20
2023-03-17T21:39:30.566Z,13.12
2023-03-17T21:41:37.060Z,13.06
2023-03-17T21:43:40.342Z,13.05
2023-03-17T21:45:44.156Z,13.15
2023-03-17T21:47:46.993Z,13.07
2023-03-17T21:49:49.711Z,12.97
2023-03-17T21:51:52.566Z,13.00
2023-03-17T21:53:55.234Z,12.92
2023-03-17T21:55:57.915Z,12.91
2023-03-17T21:58:02.373Z,12.98
2023-03-17T22:00:06.213Z,12.93
2023-03-17T22:02:12.335Z,12.83
2023-03-17T22:04:15.470Z,12.74
2023-03-17T22:06:18.791Z,12.68
2023-03-17T22:08:21.706Z,12.56
2023-03-17T22:10:24.363Z,12.65
2023-03-17T22:12:27.065Z,12.63
2023-03-17T22:14:31.258Z,12.67
2023-03-17T22:16:34.082Z,12.73
2023-03-17T22:18:37.359Z,12.73
2023-03-17T22:20:40.102Z,12.67
2023-03-17T22:22:42.742Z,12.74
2023-03-17T22:24:45.527Z,12.84
2023-03-17T22:26:49.071Z,12.89
2023-03-17T22:28:51.934Z,12.83
2023-03-17T22:30:56.030Z,13.07
2023-03-17T22:32:58.793Z,12.99
2023-03-17T22:35:01.519Z,12.98
2023-03-17T22:37:04.981Z,13.00
2023-03-17T22:39:08.899Z,12.97
2023-03-17T22:41:14.375Z,12.96
2023-03-17T22:43:17.093Z,12.97
2023-03-17T22:45:19.809Z,12.90
2023-03-17T22:47:23.829Z,12.80
2023-03-17T22:49:26.569Z,12.78
2023-03-17T22:51:29.314Z,12.72
2023-03-17T22:53:32.925Z,12.74
2023-03-17T22:55:36.401Z,12.90
2023-03-17T22:57:39.204Z,12.87
2023-03-17T22:59:41.888Z,12.76
2023-03-17T23:01:45.780Z,12.54
2023-03-17T23:03:50.093Z,12.59
2023-03-17T23:05:57.054Z,12.65
2023-03-17T23:07:59.766Z,12.70
2023-03-17T23:10:04.326Z,12.60
2023-03-17T23:12:07.992Z,12.48
2023-03-17T23:14:11.471Z,12.45
2023-03-17T23:16:14.554Z,12.37
2023-03-17T23:18:17.788Z,12.41
2023-03-17T23:20:21.790Z,12.38
2023-03-17T23:22:24.659Z,12.36
2023-03-17T23:24:27.362Z,12.33
2023-03-17T23:26:30.112Z,12.38
2023-03-17T23:28:32.946Z,12.36
2023-03-17T23:30:37.060Z,12.42
2023-03-17T23:32:40.573Z,12.54
2023-03-17T23:34:43.282Z,12.55
2023-03-17T23:36:47.333Z,12.62
2023-03-17T23:38:50.352Z,12.61
2023-03-17T23:40:56.603Z,12.45
2023-03-17T23:42:59.746Z,12.54
2023-03-17T23:45:02.510Z,12.38
2023-03-17T23:47:05.273Z,12.43
2023-03-17T23:49:08.336Z,12.58
2023-03-17T23:51:12.357Z,12.58
2023-03-17T23:53:16.383Z,12.50
2023-03-17T23:55:19.309Z,12.46
2023-03-17T23:57:22.738Z,12.39
2023-03-17T23:59:25.486Z,12.52
